Terminal Aerodrome Forecast
Issued by NWS

Home | Current Version | Previous Version | Text Only | Print | Product List | Glossary On
Versions: 1 2 3 4 5 6 7 8 9 10 11 12 13 14 15 16 17
000
FTUS45 KTFX 121100
TAFBZN
TAF
KBZN 121120Z 1212/1312 VRB06KT P6SM BKN150
     FM122200 03008KT P6SM VCTS SCT070CB BKN120
     FM130200 15006KT P6SM SCT150=

USA.gov is the U.S. government's official web portal to all federal, state and local government web resources and services.